createdAt,value
2019-04-04T00:01:55.544Z,92.04
2019-04-04T00:04:25.289Z,92.33
2019-04-04T00:06:58.102Z,92.36
2019-04-04T00:09:29.247Z,92.78
2019-04-04T00:12:00.545Z,92.57
2019-04-04T00:14:29.885Z,92.80
2019-04-04T00:16:59.171Z,92.61
2019-04-04T00:19:29.841Z,91.99
2019-04-04T00:21:59.834Z,92.76
2019-04-04T00:24:30.998Z,92.28
2019-04-04T00:27:03.055Z,92.58
2019-04-04T00:29:33.417Z,92.59
2019-04-04T00:32:04.426Z,92.52
2019-04-04T00:34:33.569Z,91.97
2019-04-04T00:37:04.387Z,92.07
2019-04-04T00:39:34.167Z,91.57
2019-04-04T00:42:03.772Z,91.69
2019-04-04T00:44:32.870Z,91.85
2019-04-04T00:47:02.287Z,91.40
2019-04-04T00:49:31.682Z,92.18
2019-04-04T00:52:00.930Z,92.08
2019-04-04T00:54:30.070Z,92.08
2019-04-04T00:56:59.200Z,92.30
2019-04-04T00:59:28.926Z,91.67
2019-04-04T01:01:58.279Z,91.73
2019-04-04T01:04:30.832Z,93.15
2019-04-04T01:06:58.739Z,92.85
2019-04-04T01:09:28.405Z,92.25
2019-04-04T01:12:01.207Z,92.55
2019-04-04T01:14:30.640Z,92.01
2019-04-04T01:16:59.718Z,91.98
2019-04-04T01:19:30.644Z,92.52
2019-04-04T01:22:00.019Z,92.95
2019-04-04T01:24:29.811Z,92.47
2019-04-04T01:26:59.147Z,94.58
2019-04-04T01:29:28.240Z,94.68
2019-04-04T01:31:57.324Z,96.35
2019-04-04T01:34:26.349Z,96.98
2019-04-04T01:36:56.569Z,96.75
2019-04-04T01:39:26.275Z,95.91
2019-04-04T01:41:55.479Z,95.93
2019-04-04T01:44:24.510Z,96.35
2019-04-04T01:46:55.636Z,96.26
2019-04-04T01:49:24.698Z,96.53
2019-04-04T01:51:56.783Z,94.75
2019-04-04T01:54:24.599Z,96.48
2019-04-04T01:56:55.931Z,95.73
2019-04-04T01:59:25.228Z,96.05
2019-04-04T02:01:54.310Z,95.82
2019-04-04T02:04:25.406Z,96.87
2019-04-04T02:06:58.865Z,97.09
2019-04-04T02:09:26.656Z,96.87
2019-04-04T02:11:55.782Z,95.16
2019-04-04T02:14:27.240Z,95.03
2019-04-04T02:16:56.330Z,95.48
2019-04-04T02:19:25.449Z,95.63
2019-04-04T02:21:54.483Z,95.65
2019-04-04T02:24:23.683Z,95.33
2019-04-04T02:26:52.736Z,94.82
2019-04-04T02:29:22.952Z,94.34
2019-04-04T02:31:54.838Z,93.19
2019-04-04T02:34:23.975Z,93.23
2019-04-04T02:36:53.050Z,93.17
2019-04-04T02:39:25.649Z,93.38
2019-04-04T02:41:54.707Z,93.06
2019-04-04T02:44:24.147Z,92.81
2019-04-04T02:46:53.207Z,92.71
2019-04-04T02:49:27.916Z,92.03
2019-04-04T02:51:54.492Z,91.97
2019-04-04T02:54:25.792Z,91.46
2019-04-04T02:56:54.833Z,91.60
2019-04-04T02:59:29.009Z,91.54
2019-04-04T03:01:58.151Z,91.67
2019-04-04T03:04:27.307Z,92.54
2019-04-04T03:06:58.371Z,92.23
2019-04-04T03:09:28.242Z,92.20
2019-04-04T03:11:57.300Z,91.68
2019-04-04T03:14:26.375Z,91.91
2019-04-04T03:16:56.880Z,92.20
2019-04-04T03:19:26.201Z,92.27
2019-04-04T03:21:56.769Z,92.33
2019-04-04T03:24:25.898Z,91.95
2019-04-04T03:26:55.041Z,92.74
2019-04-04T03:29:24.163Z,93.27
2019-04-04T03:31:53.323Z,93.08
2019-04-04T03:34:24.536Z,93.05
2019-04-04T03:36:53.676Z,92.63
2019-04-04T03:39:22.758Z,92.37
2019-04-04T03:41:51.923Z,92.33
2019-04-04T03:44:21.270Z,92.34
2019-04-04T03:46:50.690Z,92.15
2019-04-04T03:49:23.194Z,92.74
2019-04-04T03:51:51.957Z,93.42
2019-04-04T03:54:24.350Z,93.12
2019-04-04T03:56:55.105Z,93.88
2019-04-04T03:59:25.317Z,94.17
2019-04-04T04:01:54.429Z,93.82
2019-04-04T04:04:26.819Z,94.32
2019-04-04T04:06:58.593Z,93.70
2019-04-04T04:09:29.018Z,93.51
2019-04-04T04:11:58.096Z,93.72
2019-04-04T04:14:27.282Z,93.49
2019-04-04T04:16:56.352Z,93.31
2019-04-04T04:19:29.887Z,93.32
2019-04-04T04:21:56.194Z,93.17
2019-04-04T04:24:26.814Z,93.17
2019-04-04T04:26:56.054Z,93.97
2019-04-04T04:29:29.477Z,94.00
2019-04-04T04:31:58.332Z,92.87
2019-04-04T04:34:32.921Z,93.83
2019-04-04T04:37:00.458Z,93.43
2019-04-04T04:39:35.871Z,95.27
2019-04-04T04:42:05.716Z,91.37
2019-04-04T04:44:37.785Z,92.35
2019-04-04T04:47:05.691Z,92.63
2019-04-04T04:49:36.443Z,93.14
2019-04-04T04:52:05.471Z,92.82
2019-04-04T04:54:34.519Z,92.73
2019-04-04T04:57:04.831Z,92.21
2019-04-04T04:59:34.142Z,93.04
2019-04-04T05:02:03.223Z,94.76
2019-04-04T05:04:33.826Z,93.84
2019-04-04T05:07:07.143Z,94.56
2019-04-04T05:09:37.091Z,94.46
2019-04-04T05:12:06.257Z,94.03
2019-04-04T05:14:35.299Z,95.35
2019-04-04T05:17:04.764Z,97.00
2019-04-04T05:19:34.134Z,97.95
2019-04-04T05:22:03.493Z,97.07
2019-04-04T05:24:32.809Z,96.33
2019-04-04T05:27:01.938Z,97.62
2019-04-04T05:29:31.191Z,97.32
2019-04-04T05:32:02.667Z,95.79
2019-04-04T05:34:34.413Z,96.56
2019-04-04T05:37:07.363Z,96.23
2019-04-04T05:39:38.127Z,96.33
2019-04-04T05:42:07.582Z,96.25
2019-04-04T05:44:36.811Z,96.36
2019-04-04T05:47:06.110Z,96.08
2019-04-04T05:49:36.152Z,95.86
2019-04-04T05:52:08.797Z,94.89
2019-04-04T05:54:39.174Z,95.30
2019-04-04T05:57:08.343Z,95.38
2019-04-04T05:59:42.232Z,95.84
2019-04-04T06:02:14.607Z,95.57
2019-04-04T06:04:45.993Z,95.28
2019-04-04T06:07:16.540Z,94.54
2019-04-04T06:09:47.482Z,94.03
2019-04-04T06:12:17.168Z,93.98
2019-04-04T06:14:47.125Z,93.59
2019-04-04T06:17:16.189Z,94.07
2019-04-04T06:19:45.331Z,94.28
2019-04-04T06:22:15.915Z,94.65
2019-04-04T06:24:45.385Z,95.65
2019-04-04T06:27:14.413Z,94.66
2019-04-04T06:29:47.656Z,94.90
2019-04-04T06:32:15.985Z,93.39
2019-04-04T06:34:45.249Z,94.68
2019-04-04T06:37:14.427Z,95.06
2019-04-04T06:39:45.364Z,94.46
2019-04-04T06:42:14.734Z,92.31
2019-04-04T06:44:44.449Z,91.60
2019-04-04T06:47:16.401Z,90.28
2019-04-04T06:49:47.767Z,89.03
2019-04-04T06:52:19.239Z,89.97
2019-04-04T06:54:48.770Z,90.77
2019-04-04T06:57:17.907Z,90.17
2019-04-04T06:59:52.075Z,88.59
2019-04-04T07:02:27.610Z,88.94
2019-04-04T07:04:57.353Z,88.13
2019-04-04T07:07:27.199Z,87.90
2019-04-04T07:09:57.884Z,89.06
2019-04-04T07:12:28.568Z,90.02
2019-04-04T07:14:58.393Z,90.78
2019-04-04T07:17:27.570Z,89.37
2019-04-04T07:19:59.340Z,87.59
2019-04-04T07:22:28.959Z,90.14
2019-04-04T07:25:01.116Z,86.80
2019-04-04T07:27:33.633Z,88.72
2019-04-04T07:30:03.800Z,88.58
2019-04-04T07:32:34.171Z,88.27
2019-04-04T07:35:04.996Z,88.45
2019-04-04T07:37:36.409Z,89.03
2019-04-04T07:40:05.894Z,88.01
2019-04-04T07:42:35.235Z,87.56
2019-04-04T07:45:06.462Z,88.55
2019-04-04T07:47:35.566Z,90.54
2019-04-04T07:50:05.006Z,90.81
2019-04-04T07:52:34.229Z,89.46
2019-04-04T07:55:03.476Z,89.27
2019-04-04T07:57:35.957Z,89.64
2019-04-04T08:00:07.273Z,89.41
2019-04-04T08:02:36.296Z,90.04
2019-04-04T08:05:14.361Z,88.95
2019-04-04T08:07:43.616Z,88.25
2019-04-04T08:10:20.648Z,86.80
2019-04-04T08:12:45.617Z,87.82
2019-04-04T08:15:15.815Z,86.19
2019-04-04T08:17:45.051Z,86.68
2019-04-04T08:20:15.515Z,88.34
2019-04-04T08:22:48.651Z,88.32
2019-04-04T08:25:22.891Z,88.45
2019-04-04T08:27:53.453Z,87.43
2019-04-04T08:30:23.119Z,87.14
2019-04-04T08:32:52.362Z,86.93
2019-04-04T08:35:22.924Z,86.93
2019-04-04T08:37:52.108Z,89.39
2019-04-04T08:40:28.625Z,88.23
2019-04-04T08:42:58.299Z,87.93
2019-04-04T08:45:27.468Z,88.38
2019-04-04T08:47:56.704Z,89.10
2019-04-04T08:50:26.013Z,88.33
2019-04-04T08:52:56.270Z,88.79
2019-04-04T08:55:25.399Z,90.25
2019-04-04T08:57:54.641Z,88.80
2019-04-04T09:00:26.257Z,87.94
2019-04-04T09:02:55.372Z,89.03
2019-04-04T09:05:26.902Z,87.58
2019-04-04T09:07:56.204Z,89.42
2019-04-04T09:10:25.393Z,88.46
2019-04-04T09:12:54.637Z,88.75
2019-04-04T09:15:24.112Z,89.75
2019-04-04T09:17:59.038Z,89.58
2019-04-04T09:20:28.332Z,89.69
2019-04-04T09:22:57.805Z,89.34
2019-04-04T09:25:27.392Z,88.28
2019-04-04T09:27:56.504Z,88.29
2019-04-04T09:30:25.720Z,88.61
2019-04-04T09:32:55.112Z,86.31
2019-04-04T09:35:24.438Z,84.48
2019-04-04T09:37:53.848Z,85.78
2019-04-04T09:40:26.632Z,85.76
2019-04-04T09:42:55.720Z,85.56
2019-04-04T09:45:26.687Z,87.28
2019-04-04T09:47:55.768Z,86.00
2019-04-04T09:50:25.442Z,86.74
2019-04-04T09:52:54.565Z,85.45
2019-04-04T09:55:23.811Z,86.45
2019-04-04T09:57:53.015Z,85.25
2019-04-04T10:00:23.072Z,86.41
2019-04-04T10:02:52.096Z,85.05
2019-04-04T10:05:21.162Z,83.99
2019-04-04T10:07:50.220Z,83.42
2019-04-04T10:10:23.368Z,83.19
2019-04-04T10:12:52.474Z,84.93
2019-04-04T10:15:22.663Z,84.80
2019-04-04T10:17:51.780Z,82.99
2019-04-04T10:20:20.957Z,82.94
2019-04-04T10:22:50.100Z,84.32
2019-04-04T10:25:19.858Z,83.23
2019-04-04T10:27:48.950Z,85.65
2019-04-04T10:30:17.982Z,84.99
2019-04-04T10:32:47.045Z,84.84
2019-04-04T10:35:16.069Z,84.90
2019-04-04T10:37:45.245Z,87.31
2019-04-04T10:40:17.788Z,85.19
2019-04-04T10:42:46.844Z,87.92
2019-04-04T10:45:15.884Z,86.90
2019-04-04T10:47:44.974Z,85.92
2019-04-04T10:50:14.533Z,89.21
2019-04-04T10:52:43.911Z,86.53
2019-04-04T10:55:14.099Z,88.35
2019-04-04T10:57:43.454Z,86.35
2019-04-04T11:00:12.844Z,86.27
2019-04-04T11:02:42.333Z,85.14
2019-04-04T11:05:11.435Z,82.73
2019-04-04T11:07:40.504Z,81.33
2019-04-04T11:10:10.869Z,80.30
2019-04-04T11:12:40.259Z,78.95
2019-04-04T11:15:09.922Z,77.87
2019-04-04T11:17:38.998Z,77.68
2019-04-04T11:20:08.067Z,79.26
2019-04-04T11:22:38.115Z,76.13
2019-04-04T11:25:08.267Z,78.94
2019-04-04T11:27:39.009Z,78.72
2019-04-04T11:30:09.630Z,80.69
2019-04-04T11:32:39.846Z,78.86
2019-04-04T11:35:10.200Z,80.37
2019-04-04T11:37:39.341Z,80.02
2019-04-04T11:40:09.119Z,82.24
2019-04-04T11:42:38.344Z,84.21
2019-04-04T11:45:07.483Z,84.81
2019-04-04T11:47:36.547Z,83.45
2019-04-04T11:50:05.980Z,82.35
2019-04-04T11:52:35.071Z,84.47
2019-04-04T11:55:06.592Z,84.47
2019-04-04T11:57:35.624Z,82.37
2019-04-04T12:00:05.359Z,82.97
2019-04-04T12:02:34.377Z,81.00
2019-04-04T12:05:03.824Z,81.40
2019-04-04T12:07:32.891Z,81.31
2019-04-04T12:10:07.858Z,82.63
2019-04-04T12:12:32.661Z,84.48
2019-04-04T12:15:01.894Z,84.56
2019-04-04T12:17:32.176Z,87.09
2019-04-04T12:20:01.328Z,88.13
2019-04-04T12:22:30.391Z,85.38
2019-04-04T12:24:59.430Z,88.36
2019-04-04T12:27:28.445Z,86.74
2019-04-04T12:29:57.479Z,87.18
2019-04-04T12:32:26.548Z,89.05
2019-04-04T12:34:55.599Z,88.88
2019-04-04T12:37:24.755Z,88.34
2019-04-04T12:39:53.843Z,87.56
2019-04-04T12:42:24.888Z,86.71
2019-04-04T12:44:54.759Z,87.17
2019-04-04T12:47:24.447Z,86.76
2019-04-04T12:49:53.595Z,88.63
2019-04-04T12:52:23.626Z,87.26
2019-04-04T12:54:52.955Z,88.02
2019-04-04T12:57:24.309Z,88.97
2019-04-04T12:59:53.587Z,89.29
2019-04-04T13:02:22.928Z,91.03
2019-04-04T13:04:52.549Z,87.21
2019-04-04T13:07:22.325Z,88.17
2019-04-04T13:09:52.010Z,88.05
2019-04-04T13:12:23.341Z,90.94
2019-04-04T13:14:54.972Z,89.26
2019-04-04T13:17:25.459Z,87.31
2019-04-04T13:19:55.703Z,88.82
2019-04-04T13:22:25.484Z,88.93
2019-04-04T13:24:56.545Z,89.00
2019-04-04T13:27:26.230Z,89.96
2019-04-04T13:29:55.633Z,86.43
2019-04-04T13:32:25.161Z,85.70
2019-04-04T13:34:59.515Z,88.46
2019-04-04T13:37:25.712Z,87.31
2019-04-04T13:39:55.387Z,87.39
2019-04-04T13:42:24.666Z,86.72
2019-04-04T13:44:53.906Z,85.81
2019-04-04T13:47:25.648Z,86.22
2019-04-04T13:49:54.868Z,85.24
2019-04-04T13:52:26.456Z,82.40
2019-04-04T13:54:59.439Z,83.86
2019-04-04T13:57:29.612Z,82.37
2019-04-04T14:00:00.350Z,83.87
2019-04-04T14:02:31.738Z,84.00
2019-04-04T14:05:09.675Z,83.58
2019-04-04T14:07:33.628Z,84.55
2019-04-04T14:10:16.986Z,85.12
2019-04-04T14:12:49.127Z,86.21
2019-04-04T14:15:19.767Z,83.84
2019-04-04T14:17:49.015Z,83.00
2019-04-04T14:20:19.322Z,83.44
2019-04-04T14:22:51.503Z,84.75
2019-04-04T14:25:22.065Z,83.85
2019-04-04T14:27:51.301Z,82.55
2019-04-04T14:30:23.492Z,82.59
2019-04-04T14:32:55.013Z,83.71
2019-04-04T14:35:25.324Z,82.25
2019-04-04T14:37:56.315Z,82.42
2019-04-04T14:40:27.798Z,82.87
2019-04-04T14:42:57.151Z,84.18
2019-04-04T14:45:27.821Z,82.24
2019-04-04T14:47:56.983Z,83.19
2019-04-04T14:50:28.082Z,83.14
2019-04-04T14:52:57.090Z,84.22
2019-04-04T14:55:26.242Z,83.88
2019-04-04T14:57:56.135Z,83.17
2019-04-04T15:00:25.246Z,83.23
2019-04-04T15:02:54.529Z,84.50
2019-04-04T15:05:25.560Z,83.91
2019-04-04T15:07:54.701Z,84.69
2019-04-04T15:10:26.094Z,85.22
2019-04-04T15:12:55.178Z,84.38
2019-04-04T15:15:26.462Z,84.94
2019-04-04T15:17:55.735Z,83.50
2019-04-04T15:20:25.119Z,80.55
2019-04-04T15:22:54.215Z,79.82
2019-04-04T15:25:23.454Z,81.05
2019-04-04T15:27:53.269Z,83.14
2019-04-04T15:30:24.855Z,82.60
2019-04-04T15:32:54.379Z,79.86
2019-04-04T15:35:24.932Z,81.57
2019-04-04T15:37:53.997Z,80.19
2019-04-04T15:40:26.266Z,80.86
2019-04-04T15:42:55.727Z,80.85
2019-04-04T15:45:26.140Z,79.61
2019-04-04T15:47:55.186Z,82.64
2019-04-04T15:50:30.117Z,82.52
2019-04-04T15:52:59.188Z,83.11
2019-04-04T15:55:29.726Z,81.22
2019-04-04T15:57:58.815Z,82.94
2019-04-04T16:00:28.163Z,81.42
2019-04-04T16:02:57.171Z,81.17
2019-04-04T16:05:26.244Z,81.53
2019-04-04T16:07:55.324Z,82.51
2019-04-04T16:10:24.615Z,82.19
2019-04-04T16:12:53.732Z,80.78
2019-04-04T16:15:23.917Z,82.22
2019-04-04T16:17:53.006Z,81.96
2019-04-04T16:20:22.142Z,82.89
2019-04-04T16:22:51.136Z,83.14
2019-04-04T16:25:20.318Z,81.99
2019-04-04T16:27:49.367Z,83.54
2019-04-04T16:30:21.162Z,80.38
2019-04-04T16:32:50.305Z,81.74
2019-04-04T16:35:19.420Z,81.49
2019-04-04T16:37:48.516Z,80.88
2019-04-04T16:40:17.628Z,79.92
2019-04-04T16:42:46.758Z,79.50
2019-04-04T16:45:15.883Z,80.67
2019-04-04T16:47:46.363Z,80.53
2019-04-04T16:50:22.529Z,81.07
2019-04-04T16:52:55.883Z,83.32
2019-04-04T16:55:29.967Z,81.32
2019-04-04T16:57:59.037Z,79.92
2019-04-04T17:00:28.257Z,80.06
2019-04-04T17:02:57.349Z,81.57
2019-04-04T17:05:26.451Z,80.10
2019-04-04T17:07:55.571Z,80.38
2019-04-04T17:10:36.975Z,80.57
2019-04-04T17:13:07.047Z,80.70
2019-04-04T17:15:37.287Z,81.54
2019-04-04T17:18:06.452Z,82.34
2019-04-04T17:20:35.503Z,83.02
2019-04-04T17:23:04.611Z,83.25
2019-04-04T17:25:35.855Z,83.40
2019-04-04T17:28:05.515Z,85.02
2019-04-04T17:30:34.584Z,86.78
2019-04-04T17:33:08.578Z,86.73
2019-04-04T17:35:39.390Z,85.83
2019-04-04T17:38:08.457Z,87.77
2019-04-04T17:40:38.848Z,88.34
2019-04-04T17:43:10.496Z,87.83
2019-04-04T17:45:41.565Z,87.89
2019-04-04T17:48:10.758Z,87.35
2019-04-04T17:50:40.230Z,86.71
2019-04-04T17:53:09.863Z,87.26
2019-04-04T17:55:40.175Z,87.94
2019-04-04T17:58:11.944Z,88.83
2019-04-04T18:00:41.533Z,90.16
2019-04-04T18:03:14.177Z,90.32
2019-04-04T18:05:46.497Z,90.80
2019-04-04T18:08:15.661Z,91.23
2019-04-04T18:10:46.224Z,92.06
2019-04-04T18:13:15.286Z,92.87
2019-04-04T18:15:45.290Z,94.13
2019-04-04T18:18:16.928Z,94.58
2019-04-04T18:20:47.787Z,93.35
2019-04-04T18:23:18.072Z,92.69
2019-04-04T18:25:48.489Z,92.45
2019-04-04T18:28:17.536Z,92.57
2019-04-04T18:30:46.699Z,93.89
2019-04-04T18:33:19.265Z,93.12
2019-04-04T18:35:49.760Z,94.87
2019-04-04T18:38:32.143Z,95.52
2019-04-04T18:41:01.262Z,95.58
2019-04-04T18:43:30.351Z,94.94
2019-04-04T18:46:05.685Z,95.57
2019-04-04T18:48:35.197Z,95.08
2019-04-04T18:51:04.383Z,95.78
2019-04-04T18:53:33.684Z,94.90
2019-04-04T18:56:04.080Z,95.63
2019-04-04T18:58:33.334Z,96.19
2019-04-04T19:01:02.408Z,96.20
2019-04-04T19:03:31.525Z,96.14
2019-04-04T19:06:00.606Z,95.47
2019-04-04T19:08:29.743Z,95.00
2019-04-04T19:10:58.761Z,94.55
2019-04-04T19:13:28.332Z,94.06
2019-04-04T19:16:00.252Z,93.61
2019-04-04T19:18:28.627Z,93.62
2019-04-04T19:20:57.634Z,93.18
2019-04-04T19:23:26.749Z,92.99
2019-04-04T19:25:57.430Z,92.52
2019-04-04T19:28:30.961Z,94.74
2019-04-04T19:31:00.066Z,95.28
2019-04-04T19:33:29.224Z,94.85
2019-04-04T19:35:59.495Z,94.65
2019-04-04T19:38:28.596Z,94.23
2019-04-04T19:41:01.409Z,93.90
2019-04-04T19:43:30.908Z,93.67
2019-04-04T19:46:00.086Z,93.07
2019-04-04T19:48:29.853Z,92.97
2019-04-04T19:50:59.250Z,92.85
2019-04-04T19:53:29.019Z,92.72
2019-04-04T19:55:58.363Z,92.62
2019-04-04T19:58:27.960Z,92.40
2019-04-04T20:00:57.902Z,92.95
2019-04-04T20:03:27.277Z,92.73
2019-04-04T20:05:56.651Z,92.80
2019-04-04T20:08:25.951Z,93.08
2019-04-04T20:11:05.406Z,93.25
2019-04-04T20:13:34.558Z,93.16
2019-04-04T20:16:05.357Z,92.77
2019-04-04T20:18:34.577Z,93.62
2019-04-04T20:21:03.935Z,93.82
2019-04-04T20:23:35.429Z,93.67
2019-04-04T20:26:06.152Z,93.53
2019-04-04T20:28:35.805Z,93.62
2019-04-04T20:31:05.184Z,93.93
2019-04-04T20:33:35.697Z,93.62
2019-04-04T20:36:06.720Z,93.15
2019-04-04T20:38:36.142Z,93.32
2019-04-04T20:41:07.117Z,93.31
2019-04-04T20:43:45.227Z,93.20
2019-04-04T20:46:18.001Z,93.09
2019-04-04T20:48:47.431Z,92.16
2019-04-04T20:51:16.921Z,93.12
2019-04-04T20:53:46.238Z,93.70
2019-04-04T20:56:18.860Z,93.45
2019-04-04T20:58:48.055Z,93.64
2019-04-04T21:01:20.330Z,93.60
2019-04-04T21:03:49.677Z,93.56
2019-04-04T21:06:20.690Z,94.31
2019-04-04T21:08:49.888Z,94.59
2019-04-04T21:11:19.146Z,95.30
2019-04-04T21:13:56.412Z,94.99
2019-04-04T21:16:23.592Z,94.79
2019-04-04T21:18:52.921Z,94.42
2019-04-04T21:21:22.819Z,94.23
2019-04-04T21:23:54.149Z,94.32
2019-04-04T21:26:24.998Z,94.83
2019-04-04T21:28:54.639Z,94.43
2019-04-04T21:31:25.724Z,94.58
2019-04-04T21:33:56.076Z,94.80
2019-04-04T21:36:29.340Z,94.72
2019-04-04T21:38:58.620Z,94.37
2019-04-04T21:41:27.909Z,93.78
2019-04-04T21:44:09.228Z,94.63
2019-04-04T21:46:38.053Z,94.58
2019-04-04T21:49:07.268Z,94.81
2019-04-04T21:51:36.527Z,93.91
2019-04-04T21:54:05.764Z,94.84
2019-04-04T21:56:35.390Z,95.39
2019-04-04T21:59:04.870Z,95.54
2019-04-04T22:01:34.412Z,96.26
2019-04-04T22:04:03.823Z,96.43
2019-04-04T22:06:33.496Z,96.12
2019-04-04T22:09:06.874Z,95.63
2019-04-04T22:11:36.159Z,96.53
2019-04-04T22:14:05.488Z,97.61
2019-04-04T22:16:34.823Z,98.49
2019-04-04T22:19:04.150Z,98.84
2019-04-04T22:21:33.551Z,99.30
2019-04-04T22:24:03.664Z,98.95
2019-04-04T22:26:32.946Z,98.74
2019-04-04T22:29:02.221Z,97.29
2019-04-04T22:31:32.681Z,98.15
2019-04-04T22:34:01.937Z,97.73
2019-04-04T22:36:32.543Z,97.07
2019-04-04T22:39:01.920Z,97.29
2019-04-04T22:41:32.947Z,96.58
2019-04-04T22:44:06.463Z,96.23
2019-04-04T22:46:35.702Z,96.98
2019-04-04T22:49:06.924Z,96.83
2019-04-04T22:51:36.159Z,97.67
2019-04-04T22:54:07.153Z,97.29
2019-04-04T22:56:36.513Z,97.08
2019-04-04T22:59:07.841Z,97.31
2019-04-04T23:01:37.255Z,97.37
2019-04-04T23:04:06.617Z,96.80
2019-04-04T23:06:35.918Z,95.94
2019-04-04T23:09:09.122Z,95.66
2019-04-04T23:11:38.754Z,96.78
2019-04-04T23:14:08.217Z,96.14
2019-04-04T23:16:37.559Z,95.69
2019-04-04T23:19:07.060Z,95.51
2019-04-04T23:21:36.390Z,95.04
2019-04-04T23:24:05.632Z,95.67
2019-04-04T23:26:34.946Z,95.83
2019-04-04T23:29:06.819Z,95.65
2019-04-04T23:31:36.068Z,95.83
2019-04-04T23:34:05.400Z,95.53
2019-04-04T23:36:35.526Z,94.73
2019-04-04T23:39:06.201Z,93.86
2019-04-04T23:41:35.839Z,94.41
2019-04-04T23:44:05.579Z,94.46
2019-04-04T23:46:35.011Z,93.98
2019-04-04T23:49:04.512Z,93.83
2019-04-04T23:51:34.130Z,93.71
2019-04-04T23:54:05.629Z,93.91
2019-04-04T23:56:35.222Z,93.38
2019-04-04T23:59:05.202Z,93.96
